sensor_id;sensor_type;location;lat;lon;timestamp;P1;durP1;ratioP1;P2;durP2;ratioP2
25213;SDS011;13160;51.834;4.706;2023-07-16T00:02:08;15.38;;;3.78;;
25213;SDS011;13160;51.834;4.706;2023-07-16T00:04:40;14.07;;;3.50;;
25213;SDS011;13160;51.834;4.706;2023-07-16T00:07:09;10.32;;;2.95;;
25213;SDS011;13160;51.834;4.706;2023-07-16T00:09:39;9.65;;;3.13;;
25213;SDS011;13160;51.834;4.706;2023-07-16T00:12:19;11.60;;;3.25;;
25213;SDS011;13160;51.834;4.706;2023-07-16T00:14:49;8.85;;;2.97;;
25213;SDS011;13160;51.834;4.706;2023-07-16T00:17:18;11.23;;;3.67;;
25213;SDS011;13160;51.834;4.706;2023-07-16T00:19:50;14.63;;;3.25;;
25213;SDS011;13160;51.834;4.706;2023-07-16T00:22:34;13.43;;;3.40;;
25213;SDS011;13160;51.834;4.706;2023-07-16T00:25:06;16.42;;;3.38;;
25213;SDS011;13160;51.834;4.706;2023-07-16T00:27:35;13.13;;;3.75;;
25213;SDS011;13160;51.834;4.706;2023-07-16T00:30:07;12.38;;;3.38;;
25213;SDS011;13160;51.834;4.706;2023-07-16T00:32:37;13.52;;;3.58;;
25213;SDS011;13160;51.834;4.706;2023-07-16T00:35:19;15.00;;;3.88;;
25213;SDS011;13160;51.834;4.706;2023-07-16T00:38:05;10.60;;;3.65;;
25213;SDS011;13160;51.834;4.706;2023-07-16T00:40:35;12.35;;;3.85;;
25213;SDS011;13160;51.834;4.706;2023-07-16T00:43:04;13.02;;;3.63;;
25213;SDS011;13160;51.834;4.706;2023-07-16T00:45:46;12.52;;;4.40;;
25213;SDS011;13160;51.834;4.706;2023-07-16T00:48:29;13.82;;;4.10;;
25213;SDS011;13160;51.834;4.706;2023-07-16T00:50:58;12.38;;;3.90;;
25213;SDS011;13160;51.834;4.706;2023-07-16T00:53:29;17.67;;;4.47;;
25213;SDS011;13160;51.834;4.706;2023-07-16T00:55:58;10.05;;;3.92;;
25213;SDS011;13160;51.834;4.706;2023-07-16T00:58:27;11.35;;;3.75;;
25213;SDS011;13160;51.834;4.706;2023-07-16T01:00:58;13.07;;;4.05;;
25213;SDS011;13160;51.834;4.706;2023-07-16T01:03:27;15.98;;;5.53;;
25213;SDS011;13160;51.834;4.706;2023-07-16T01:05:57;11.30;;;4.15;;
25213;SDS011;13160;51.834;4.706;2023-07-16T01:08:35;13.68;;;4.65;;
25213;SDS011;13160;51.834;4.706;2023-07-16T01:11:08;18.55;;;4.88;;
25213;SDS011;13160;51.834;4.706;2023-07-16T01:13:37;17.23;;;4.50;;
25213;SDS011;13160;51.834;4.706;2023-07-16T01:16:08;12.48;;;4.43;;
25213;SDS011;13160;51.834;4.706;2023-07-16T01:18:47;17.88;;;4.70;;
25213;SDS011;13160;51.834;4.706;2023-07-16T01:21:16;15.95;;;4.82;;
25213;SDS011;13160;51.834;4.706;2023-07-16T01:23:56;10.20;;;4.13;;
25213;SDS011;13160;51.834;4.706;2023-07-16T01:26:51;13.55;;;4.38;;
25213;SDS011;13160;51.834;4.706;2023-07-16T01:29:58;18.52;;;4.72;;
25213;SDS011;13160;51.834;4.706;2023-07-16T01:32:29;15.75;;;4.85;;
25213;SDS011;13160;51.834;4.706;2023-07-16T01:34:59;16.10;;;4.32;;
25213;SDS011;13160;51.834;4.706;2023-07-16T01:37:30;13.70;;;4.90;;
25213;SDS011;13160;51.834;4.706;2023-07-16T01:39:59;15.10;;;4.88;;
25213;SDS011;13160;51.834;4.706;2023-07-16T01:42:28;16.33;;;4.88;;
25213;SDS011;13160;51.834;4.706;2023-07-16T01:45:02;10.48;;;5.07;;
25213;SDS011;13160;51.834;4.706;2023-07-16T01:47:34;15.38;;;5.25;;
25213;SDS011;13160;51.834;4.706;2023-07-16T01:50:13;16.08;;;4.53;;
25213;SDS011;13160;51.834;4.706;2023-07-16T01:52:42;15.50;;;5.45;;
25213;SDS011;13160;51.834;4.706;2023-07-16T01:55:13;12.43;;;4.68;;
25213;SDS011;13160;51.834;4.706;2023-07-16T01:57:42;17.83;;;5.22;;
25213;SDS011;13160;51.834;4.706;2023-07-16T02:00:13;15.80;;;4.38;;
25213;SDS011;13160;51.834;4.706;2023-07-16T02:02:42;13.32;;;4.57;;
25213;SDS011;13160;51.834;4.706;2023-07-16T02:05:10;21.52;;;5.28;;
25213;SDS011;13160;51.834;4.706;2023-07-16T02:07:39;17.20;;;4.90;;
25213;SDS011;13160;51.834;4.706;2023-07-16T02:10:08;11.38;;;4.60;;
25213;SDS011;13160;51.834;4.706;2023-07-16T02:12:37;13.00;;;4.93;;
25213;SDS011;13160;51.834;4.706;2023-07-16T02:15:06;12.98;;;4.15;;
25213;SDS011;13160;51.834;4.706;2023-07-16T02:17:37;13.13;;;4.50;;
25213;SDS011;13160;51.834;4.706;2023-07-16T02:20:06;11.95;;;4.22;;
25213;SDS011;13160;51.834;4.706;2023-07-16T02:22:51;13.65;;;4.40;;
25213;SDS011;13160;51.834;4.706;2023-07-16T02:25:20;16.27;;;4.50;;
25213;SDS011;13160;51.834;4.706;2023-07-16T02:27:59;18.48;;;4.60;;
25213;SDS011;13160;51.834;4.706;2023-07-16T02:30:40;14.20;;;4.93;;
25213;SDS011;13160;51.834;4.706;2023-07-16T02:33:10;15.35;;;4.65;;
25213;SDS011;13160;51.834;4.706;2023-07-16T02:35:39;10.73;;;3.85;;
25213;SDS011;13160;51.834;4.706;2023-07-16T02:38:13;10.13;;;4.13;;
25213;SDS011;13160;51.834;4.706;2023-07-16T02:40:43;15.15;;;4.75;;
25213;SDS011;13160;51.834;4.706;2023-07-16T02:43:12;17.52;;;4.85;;
25213;SDS011;13160;51.834;4.706;2023-07-16T02:45:40;18.00;;;4.32;;
25213;SDS011;13160;51.834;4.706;2023-07-16T02:48:11;15.25;;;4.80;;
25213;SDS011;13160;51.834;4.706;2023-07-16T02:50:40;13.75;;;4.55;;
25213;SDS011;13160;51.834;4.706;2023-07-16T02:53:09;14.48;;;4.35;;
25213;SDS011;13160;51.834;4.706;2023-07-16T02:55:38;15.07;;;4.18;;
25213;SDS011;13160;51.834;4.706;2023-07-16T02:58:07;14.80;;;4.22;;
25213;SDS011;13160;51.834;4.706;2023-07-16T03:00:36;13.38;;;4.63;;
25213;SDS011;13160;51.834;4.706;2023-07-16T03:03:09;17.88;;;4.30;;
25213;SDS011;13160;51.834;4.706;2023-07-16T03:05:51;13.27;;;4.78;;
25213;SDS011;13160;51.834;4.706;2023-07-16T03:08:19;13.98;;;4.25;;
25213;SDS011;13160;51.834;4.706;2023-07-16T03:10:49;16.67;;;5.47;;
25213;SDS011;13160;51.834;4.706;2023-07-16T03:13:17;13.90;;;4.55;;
25213;SDS011;13160;51.834;4.706;2023-07-16T03:15:47;15.55;;;5.00;;
25213;SDS011;13160;51.834;4.706;2023-07-16T03:18:17;9.73;;;4.07;;
25213;SDS011;13160;51.834;4.706;2023-07-16T03:20:46;14.65;;;4.32;;
25213;SDS011;13160;51.834;4.706;2023-07-16T03:23:22;18.77;;;5.45;;
25213;SDS011;13160;51.834;4.706;2023-07-16T03:25:51;15.05;;;5.78;;
25213;SDS011;13160;51.834;4.706;2023-07-16T03:28:26;14.65;;;5.28;;
25213;SDS011;13160;51.834;4.706;2023-07-16T03:30:55;14.10;;;5.05;;
25213;SDS011;13160;51.834;4.706;2023-07-16T03:33:30;17.02;;;5.55;;
25213;SDS011;13160;51.834;4.706;2023-07-16T03:36:04;13.35;;;5.78;;
25213;SDS011;13160;51.834;4.706;2023-07-16T03:38:34;16.85;;;5.28;;
25213;SDS011;13160;51.834;4.706;2023-07-16T03:41:17;14.52;;;5.57;;
25213;SDS011;13160;51.834;4.706;2023-07-16T03:43:48;16.33;;;6.55;;
25213;SDS011;13160;51.834;4.706;2023-07-16T03:46:22;14.25;;;6.32;;
25213;SDS011;13160;51.834;4.706;2023-07-16T03:49:07;15.13;;;6.03;;
25213;SDS011;13160;51.834;4.706;2023-07-16T03:51:49;14.88;;;5.88;;
25213;SDS011;13160;51.834;4.706;2023-07-16T03:54:17;13.68;;;6.40;;
25213;SDS011;13160;51.834;4.706;2023-07-16T03:56:46;14.20;;;5.80;;
25213;SDS011;13160;51.834;4.706;2023-07-16T03:59:26;14.30;;;6.00;;
25213;SDS011;13160;51.834;4.706;2023-07-16T04:02:00;15.75;;;5.32;;
25213;SDS011;13160;51.834;4.706;2023-07-16T04:04:46;13.93;;;5.72;;
25213;SDS011;13160;51.834;4.706;2023-07-16T04:07:15;14.10;;;6.15;;
25213;SDS011;13160;51.834;4.706;2023-07-16T04:09:45;15.27;;;5.75;;
25213;SDS011;13160;51.834;4.706;2023-07-16T04:12:21;12.57;;;5.95;;
25213;SDS011;13160;51.834;4.706;2023-07-16T04:15:00;15.48;;;5.70;;
25213;SDS011;13160;51.834;4.706;2023-07-16T04:17:33;11.68;;;5.47;;
25213;SDS011;13160;51.834;4.706;2023-07-16T04:20:03;11.88;;;5.00;;
25213;SDS011;13160;51.834;4.706;2023-07-16T04:22:40;16.23;;;6.18;;
25213;SDS011;13160;51.834;4.706;2023-07-16T04:25:27;16.05;;;5.40;;
25213;SDS011;13160;51.834;4.706;2023-07-16T04:28:33;8.90;;;5.25;;
25213;SDS011;13160;51.834;4.706;2023-07-16T04:31:02;17.80;;;6.32;;
25213;SDS011;13160;51.834;4.706;2023-07-16T04:33:31;11.75;;;5.65;;
25213;SDS011;13160;51.834;4.706;2023-07-16T04:36:24;18.45;;;6.05;;
25213;SDS011;13160;51.834;4.706;2023-07-16T04:39:04;11.60;;;5.57;;
25213;SDS011;13160;51.834;4.706;2023-07-16T04:41:33;15.98;;;5.15;;
25213;SDS011;13160;51.834;4.706;2023-07-16T04:44:02;14.10;;;5.85;;
25213;SDS011;13160;51.834;4.706;2023-07-16T04:46:32;11.18;;;5.53;;
25213;SDS011;13160;51.834;4.706;2023-07-16T04:49:04;19.70;;;6.20;;
25213;SDS011;13160;51.834;4.706;2023-07-16T04:51:38;14.27;;;5.72;;
25213;SDS011;13160;51.834;4.706;2023-07-16T04:54:12;13.35;;;5.35;;
25213;SDS011;13160;51.834;4.706;2023-07-16T04:56:40;13.75;;;6.60;;
25213;SDS011;13160;51.834;4.706;2023-07-16T04:59:09;14.13;;;5.80;;
25213;SDS011;13160;51.834;4.706;2023-07-16T05:01:39;14.93;;;6.28;;
25213;SDS011;13160;51.834;4.706;2023-07-16T05:04:07;14.48;;;6.20;;
25213;SDS011;13160;51.834;4.706;2023-07-16T05:06:45;13.90;;;6.65;;
25213;SDS011;13160;51.834;4.706;2023-07-16T05:09:26;20.63;;;5.90;;
25213;SDS011;13160;51.834;4.706;2023-07-16T05:12:06;13.75;;;6.55;;
25213;SDS011;13160;51.834;4.706;2023-07-16T05:14:49;14.30;;;5.80;;
25213;SDS011;13160;51.834;4.706;2023-07-16T05:17:22;12.20;;;6.00;;
25213;SDS011;13160;51.834;4.706;2023-07-16T05:19:51;13.10;;;6.60;;
25213;SDS011;13160;51.834;4.706;2023-07-16T05:22:21;15.55;;;6.45;;
25213;SDS011;13160;51.834;4.706;2023-07-16T05:24:50;13.32;;;6.65;;
25213;SDS011;13160;51.834;4.706;2023-07-16T05:27:43;15.88;;;6.13;;
25213;SDS011;13160;51.834;4.706;2023-07-16T05:30:12;18.17;;;6.97;;
25213;SDS011;13160;51.834;4.706;2023-07-16T05:32:48;13.20;;;6.30;;
25213;SDS011;13160;51.834;4.706;2023-07-16T05:35:19;10.80;;;6.00;;
25213;SDS011;13160;51.834;4.706;2023-07-16T05:38:15;11.93;;;5.63;;
25213;SDS011;13160;51.834;4.706;2023-07-16T05:40:44;16.30;;;6.72;;
25213;SDS011;13160;51.834;4.706;2023-07-16T05:43:12;15.52;;;7.75;;
25213;SDS011;13160;51.834;4.706;2023-07-16T05:45:42;14.35;;;6.55;;
25213;SDS011;13160;51.834;4.706;2023-07-16T05:48:10;12.13;;;6.05;;
25213;SDS011;13160;51.834;4.706;2023-07-16T05:50:39;15.57;;;6.88;;
25213;SDS011;13160;51.834;4.706;2023-07-16T05:53:28;16.02;;;6.55;;
25213;SDS011;13160;51.834;4.706;2023-07-16T05:55:59;16.95;;;6.75;;
25213;SDS011;13160;51.834;4.706;2023-07-16T05:58:28;17.73;;;7.18;;
25213;SDS011;13160;51.834;4.706;2023-07-16T06:00:56;15.57;;;6.95;;
25213;SDS011;13160;51.834;4.706;2023-07-16T06:03:26;14.57;;;6.75;;
25213;SDS011;13160;51.834;4.706;2023-07-16T06:05:55;12.75;;;6.90;;
25213;SDS011;13160;51.834;4.706;2023-07-16T06:08:23;14.40;;;7.40;;
25213;SDS011;13160;51.834;4.706;2023-07-16T06:11:05;18.83;;;7.97;;
25213;SDS011;13160;51.834;4.706;2023-07-16T06:13:52;19.17;;;7.28;;
25213;SDS011;13160;51.834;4.706;2023-07-16T06:16:22;14.50;;;6.85;;
25213;SDS011;13160;51.834;4.706;2023-07-16T06:18:51;15.43;;;6.57;;
25213;SDS011;13160;51.834;4.706;2023-07-16T06:21:21;19.95;;;7.20;;
25213;SDS011;13160;51.834;4.706;2023-07-16T06:23:56;25.70;;;7.72;;
25213;SDS011;13160;51.834;4.706;2023-07-16T06:26:29;17.30;;;7.38;;
25213;SDS011;13160;51.834;4.706;2023-07-16T06:28:58;19.48;;;7.40;;
25213;SDS011;13160;51.834;4.706;2023-07-16T06:31:35;16.52;;;7.47;;
25213;SDS011;13160;51.834;4.706;2023-07-16T06:34:04;19.02;;;7.72;;
25213;SDS011;13160;51.834;4.706;2023-07-16T06:36:33;16.35;;;7.18;;
25213;SDS011;13160;51.834;4.706;2023-07-16T06:39:01;20.10;;;7.72;;
25213;SDS011;13160;51.834;4.706;2023-07-16T06:41:34;14.52;;;6.80;;
25213;SDS011;13160;51.834;4.706;2023-07-16T06:44:02;14.75;;;6.78;;
25213;SDS011;13160;51.834;4.706;2023-07-16T06:46:31;15.75;;;6.55;;
25213;SDS011;13160;51.834;4.706;2023-07-16T06:49:00;13.38;;;6.00;;
25213;SDS011;13160;51.834;4.706;2023-07-16T06:51:28;14.38;;;6.78;;
25213;SDS011;13160;51.834;4.706;2023-07-16T06:53:59;13.30;;;6.18;;
25213;SDS011;13160;51.834;4.706;2023-07-16T06:56:28;16.33;;;6.20;;
25213;SDS011;13160;51.834;4.706;2023-07-16T06:58:58;11.15;;;6.63;;
25213;SDS011;13160;51.834;4.706;2023-07-16T07:01:26;16.13;;;6.43;;
25213;SDS011;13160;51.834;4.706;2023-07-16T07:03:55;16.27;;;6.97;;
25213;SDS011;13160;51.834;4.706;2023-07-16T07:06:24;11.93;;;6.57;;
25213;SDS011;13160;51.834;4.706;2023-07-16T07:08:52;14.00;;;7.28;;
25213;SDS011;13160;51.834;4.706;2023-07-16T07:11:21;14.63;;;7.00;;
25213;SDS011;13160;51.834;4.706;2023-07-16T07:13:49;19.95;;;8.48;;
25213;SDS011;13160;51.834;4.706;2023-07-16T07:16:20;12.48;;;6.93;;
25213;SDS011;13160;51.834;4.706;2023-07-16T07:18:49;19.10;;;6.88;;
25213;SDS011;13160;51.834;4.706;2023-07-16T07:21:18;16.33;;;7.40;;
25213;SDS011;13160;51.834;4.706;2023-07-16T07:23:46;16.52;;;7.60;;
25213;SDS011;13160;51.834;4.706;2023-07-16T07:26:14;13.88;;;7.07;;
25213;SDS011;13160;51.834;4.706;2023-07-16T07:28:44;17.40;;;7.35;;
25213;SDS011;13160;51.834;4.706;2023-07-16T07:31:13;13.73;;;7.00;;
25213;SDS011;13160;51.834;4.706;2023-07-16T07:33:42;16.95;;;7.50;;
25213;SDS011;13160;51.834;4.706;2023-07-16T07:36:11;12.52;;;6.47;;
25213;SDS011;13160;51.834;4.706;2023-07-16T07:38:39;15.65;;;7.57;;
25213;SDS011;13160;51.834;4.706;2023-07-16T07:41:08;12.50;;;6.82;;
25213;SDS011;13160;51.834;4.706;2023-07-16T07:43:40;13.98;;;6.82;;
25213;SDS011;13160;51.834;4.706;2023-07-16T07:46:08;12.90;;;7.47;;
25213;SDS011;13160;51.834;4.706;2023-07-16T07:48:37;13.75;;;7.88;;
25213;SDS011;13160;51.834;4.706;2023-07-16T07:51:07;14.18;;;8.00;;
25213;SDS011;13160;51.834;4.706;2023-07-16T07:53:37;15.82;;;8.25;;
25213;SDS011;13160;51.834;4.706;2023-07-16T07:56:06;14.57;;;7.90;;
25213;SDS011;13160;51.834;4.706;2023-07-16T07:58:34;14.57;;;7.93;;
25213;SDS011;13160;51.834;4.706;2023-07-16T08:01:04;13.23;;;7.28;;
25213;SDS011;13160;51.834;4.706;2023-07-16T08:03:33;14.80;;;7.72;;
25213;SDS011;13160;51.834;4.706;2023-07-16T08:06:02;16.23;;;8.20;;
25213;SDS011;13160;51.834;4.706;2023-07-16T08:08:32;19.90;;;8.43;;
25213;SDS011;13160;51.834;4.706;2023-07-16T08:11:00;20.95;;;8.65;;
25213;SDS011;13160;51.834;4.706;2023-07-16T08:13:29;16.55;;;8.50;;
25213;SDS011;13160;51.834;4.706;2023-07-16T08:16:17;18.95;;;9.18;;
25213;SDS011;13160;51.834;4.706;2023-07-16T08:18:46;18.80;;;8.02;;
25213;SDS011;13160;51.834;4.706;2023-07-16T08:21:17;17.98;;;8.48;;
25213;SDS011;13160;51.834;4.706;2023-07-16T08:23:49;17.17;;;7.90;;
25213;SDS011;13160;51.834;4.706;2023-07-16T08:26:27;17.55;;;8.10;;
25213;SDS011;13160;51.834;4.706;2023-07-16T08:29:24;16.67;;;7.78;;
25213;SDS011;13160;51.834;4.706;2023-07-16T08:31:52;18.05;;;7.88;;
25213;SDS011;13160;51.834;4.706;2023-07-16T08:34:23;14.15;;;8.25;;
25213;SDS011;13160;51.834;4.706;2023-07-16T08:36:54;18.15;;;8.45;;
25213;SDS011;13160;51.834;4.706;2023-07-16T08:39:24;17.50;;;7.72;;
25213;SDS011;13160;51.834;4.706;2023-07-16T08:41:56;17.25;;;8.60;;
25213;SDS011;13160;51.834;4.706;2023-07-16T08:44:25;15.52;;;7.95;;
25213;SDS011;13160;51.834;4.706;2023-07-16T08:47:04;15.95;;;8.00;;
25213;SDS011;13160;51.834;4.706;2023-07-16T08:49:34;14.82;;;7.28;;
25213;SDS011;13160;51.834;4.706;2023-07-16T08:52:03;12.82;;;7.53;;
25213;SDS011;13160;51.834;4.706;2023-07-16T08:54:38;17.45;;;7.20;;
25213;SDS011;13160;51.834;4.706;2023-07-16T08:57:07;15.85;;;6.80;;
25213;SDS011;13160;51.834;4.706;2023-07-16T08:59:36;14.27;;;6.80;;
25213;SDS011;13160;51.834;4.706;2023-07-16T09:02:07;18.23;;;7.50;;
25213;SDS011;13160;51.834;4.706;2023-07-16T09:04:36;13.65;;;6.25;;
25213;SDS011;13160;51.834;4.706;2023-07-16T09:07:04;19.80;;;7.38;;
25213;SDS011;13160;51.834;4.706;2023-07-16T09:09:33;16.73;;;8.18;;
25213;SDS011;13160;51.834;4.706;2023-07-16T09:12:03;15.93;;;7.40;;
25213;SDS011;13160;51.834;4.706;2023-07-16T09:14:32;13.98;;;7.25;;
25213;SDS011;13160;51.834;4.706;2023-07-16T09:17:04;16.02;;;7.68;;
25213;SDS011;13160;51.834;4.706;2023-07-16T09:19:33;15.18;;;8.23;;
25213;SDS011;13160;51.834;4.706;2023-07-16T09:22:01;17.05;;;8.00;;
25213;SDS011;13160;51.834;4.706;2023-07-16T09:24:33;15.07;;;7.53;;
25213;SDS011;13160;51.834;4.706;2023-07-16T09:27:05;13.50;;;6.82;;
25213;SDS011;13160;51.834;4.706;2023-07-16T09:29:37;15.70;;;6.80;;
25213;SDS011;13160;51.834;4.706;2023-07-16T09:32:06;11.60;;;6.28;;
25213;SDS011;13160;51.834;4.706;2023-07-16T09:34:38;13.90;;;6.82;;
25213;SDS011;13160;51.834;4.706;2023-07-16T09:37:06;14.50;;;6.80;;
25213;SDS011;13160;51.834;4.706;2023-07-16T09:39:36;16.42;;;6.80;;
25213;SDS011;13160;51.834;4.706;2023-07-16T09:42:07;16.55;;;6.93;;
25213;SDS011;13160;51.834;4.706;2023-07-16T09:44:36;14.82;;;6.55;;
25213;SDS011;13160;51.834;4.706;2023-07-16T09:47:05;10.75;;;5.90;;
25213;SDS011;13160;51.834;4.706;2023-07-16T09:49:33;12.95;;;6.47;;
25213;SDS011;13160;51.834;4.706;2023-07-16T09:52:02;15.25;;;6.53;;
25213;SDS011;13160;51.834;4.706;2023-07-16T09:54:32;11.50;;;6.40;;
25213;SDS011;13160;51.834;4.706;2023-07-16T09:57:03;14.57;;;6.53;;
25213;SDS011;13160;51.834;4.706;2023-07-16T09:59:35;13.25;;;6.80;;
25213;SDS011;13160;51.834;4.706;2023-07-16T10:02:04;12.02;;;6.90;;
25213;SDS011;13160;51.834;4.706;2023-07-16T10:04:38;15.20;;;6.65;;
25213;SDS011;13160;51.834;4.706;2023-07-16T10:07:20;13.60;;;5.90;;
25213;SDS011;13160;51.834;4.706;2023-07-16T10:09:52;11.57;;;4.82;;
25213;SDS011;13160;51.834;4.706;2023-07-16T10:12:24;8.40;;;4.18;;
25213;SDS011;13160;51.834;4.706;2023-07-16T10:14:55;9.35;;;4.50;;
25213;SDS011;13160;51.834;4.706;2023-07-16T10:17:24;11.02;;;5.20;;
25213;SDS011;13160;51.834;4.706;2023-07-16T10:19:57;11.88;;;5.50;;
25213;SDS011;13160;51.834;4.706;2023-07-16T10:22:36;14.52;;;5.05;;
25213;SDS011;13160;51.834;4.706;2023-07-16T10:25:08;9.88;;;4.88;;
25213;SDS011;13160;51.834;4.706;2023-07-16T10:27:51;11.10;;;5.72;;
25213;SDS011;13160;51.834;4.706;2023-07-16T10:30:20;10.88;;;4.97;;
25213;SDS011;13160;51.834;4.706;2023-07-16T10:32:50;7.95;;;4.40;;
25213;SDS011;13160;51.834;4.706;2023-07-16T10:35:21;9.90;;;4.95;;
25213;SDS011;13160;51.834;4.706;2023-07-16T10:37:49;11.65;;;4.80;;
25213;SDS011;13160;51.834;4.706;2023-07-16T10:40:18;9.32;;;4.65;;
25213;SDS011;13160;51.834;4.706;2023-07-16T10:42:46;11.00;;;5.10;;
25213;SDS011;13160;51.834;4.706;2023-07-16T10:45:16;11.57;;;5.78;;
25213;SDS011;13160;51.834;4.706;2023-07-16T10:47:50;12.85;;;5.93;;
25213;SDS011;13160;51.834;4.706;2023-07-16T10:50:21;11.30;;;5.78;;
25213;SDS011;13160;51.834;4.706;2023-07-16T10:52:50;13.75;;;6.18;;
25213;SDS011;13160;51.834;4.706;2023-07-16T10:55:20;14.13;;;5.60;;
25213;SDS011;13160;51.834;4.706;2023-07-16T10:57:49;13.52;;;6.93;;
25213;SDS011;13160;51.834;4.706;2023-07-16T11:00:21;9.82;;;5.63;;
25213;SDS011;13160;51.834;4.706;2023-07-16T11:02:50;13.80;;;5.50;;
25213;SDS011;13160;51.834;4.706;2023-07-16T11:05:19;10.63;;;4.57;;
25213;SDS011;13160;51.834;4.706;2023-07-16T11:07:48;9.63;;;4.65;;
25213;SDS011;13160;51.834;4.706;2023-07-16T11:10:21;7.55;;;3.60;;
25213;SDS011;13160;51.834;4.706;2023-07-16T11:12:51;10.40;;;4.03;;
25213;SDS011;13160;51.834;4.706;2023-07-16T11:15:30;9.90;;;4.32;;
25213;SDS011;13160;51.834;4.706;2023-07-16T11:18:00;8.13;;;3.90;;
25213;SDS011;13160;51.834;4.706;2023-07-16T11:20:29;8.20;;;3.50;;
25213;SDS011;13160;51.834;4.706;2023-07-16T11:22:58;7.40;;;3.50;;
25213;SDS011;13160;51.834;4.706;2023-07-16T11:25:28;6.53;;;2.97;;
25213;SDS011;13160;51.834;4.706;2023-07-16T11:27:57;7.63;;;2.80;;
25213;SDS011;13160;51.834;4.706;2023-07-16T11:30:25;6.60;;;3.25;;
25213;SDS011;13160;51.834;4.706;2023-07-16T11:32:57;6.45;;;2.90;;
25213;SDS011;13160;51.834;4.706;2023-07-16T11:35:26;6.05;;;3.00;;
25213;SDS011;13160;51.834;4.706;2023-07-16T11:37:55;7.72;;;3.33;;
25213;SDS011;13160;51.834;4.706;2023-07-16T11:40:23;8.98;;;3.22;;
25213;SDS011;13160;51.834;4.706;2023-07-16T11:42:55;5.05;;;2.63;;
25213;SDS011;13160;51.834;4.706;2023-07-16T11:45:24;8.60;;;3.47;;
25213;SDS011;13160;51.834;4.706;2023-07-16T11:47:54;7.13;;;3.17;;
25213;SDS011;13160;51.834;4.706;2023-07-16T11:50:24;10.77;;;3.40;;
25213;SDS011;13160;51.834;4.706;2023-07-16T11:52:54;7.45;;;2.90;;
25213;SDS011;13160;51.834;4.706;2023-07-16T11:55:24;8.07;;;2.72;;
25213;SDS011;13160;51.834;4.706;2023-07-16T11:57:52;10.40;;;2.85;;
25213;SDS011;13160;51.834;4.706;2023-07-16T12:00:23;7.68;;;2.70;;
25213;SDS011;13160;51.834;4.706;2023-07-16T12:02:52;9.25;;;2.60;;
25213;SDS011;13160;51.834;4.706;2023-07-16T12:05:24;6.25;;;2.78;;
25213;SDS011;13160;51.834;4.706;2023-07-16T12:08:11;7.80;;;2.50;;
25213;SDS011;13160;51.834;4.706;2023-07-16T12:10:41;7.72;;;2.70;;
25213;SDS011;13160;51.834;4.706;2023-07-16T12:13:09;9.88;;;2.25;;
25213;SDS011;13160;51.834;4.706;2023-07-16T12:15:38;5.93;;;2.13;;
25213;SDS011;13160;51.834;4.706;2023-07-16T12:18:06;8.32;;;2.30;;
25213;SDS011;13160;51.834;4.706;2023-07-16T12:20:36;7.55;;;2.20;;
25213;SDS011;13160;51.834;4.706;2023-07-16T12:23:06;7.15;;;2.15;;
25213;SDS011;13160;51.834;4.706;2023-07-16T12:25:35;4.57;;;1.67;;
25213;SDS011;13160;51.834;4.706;2023-07-16T12:28:06;6.10;;;2.15;;
25213;SDS011;13160;51.834;4.706;2023-07-16T12:30:38;8.18;;;2.40;;
25213;SDS011;13160;51.834;4.706;2023-07-16T12:33:07;7.10;;;2.28;;
25213;SDS011;13160;51.834;4.706;2023-07-16T12:35:37;8.02;;;2.40;;
25213;SDS011;13160;51.834;4.706;2023-07-16T12:38:06;9.13;;;2.20;;
25213;SDS011;13160;51.834;4.706;2023-07-16T12:40:34;7.90;;;2.22;;
25213;SDS011;13160;51.834;4.706;2023-07-16T12:43:07;6.35;;;1.73;;
25213;SDS011;13160;51.834;4.706;2023-07-16T12:45:35;7.00;;;2.10;;
25213;SDS011;13160;51.834;4.706;2023-07-16T12:48:04;8.05;;;2.10;;
25213;SDS011;13160;51.834;4.706;2023-07-16T12:50:33;6.82;;;1.95;;
25213;SDS011;13160;51.834;4.706;2023-07-16T12:53:02;6.82;;;2.17;;
25213;SDS011;13160;51.834;4.706;2023-07-16T12:55:31;7.93;;;2.00;;
25213;SDS011;13160;51.834;4.706;2023-07-16T12:58:00;6.38;;;1.75;;
25213;SDS011;13160;51.834;4.706;2023-07-16T13:00:28;7.78;;;1.98;;
25213;SDS011;13160;51.834;4.706;2023-07-16T13:02:56;7.60;;;1.73;;
25213;SDS011;13160;51.834;4.706;2023-07-16T13:05:25;7.13;;;2.08;;
25213;SDS011;13160;51.834;4.706;2023-07-16T13:07:53;8.02;;;2.08;;
25213;SDS011;13160;51.834;4.706;2023-07-16T13:10:23;5.45;;;1.63;;
25213;SDS011;13160;51.834;4.706;2023-07-16T13:12:52;6.57;;;1.85;;
25213;SDS011;13160;51.834;4.706;2023-07-16T13:15:20;4.63;;;1.60;;
25213;SDS011;13160;51.834;4.706;2023-07-16T13:17:48;10.60;;;2.03;;
25213;SDS011;13160;51.834;4.706;2023-07-16T13:20:17;6.57;;;1.98;;
25213;SDS011;13160;51.834;4.706;2023-07-16T13:22:46;6.05;;;1.67;;
25213;SDS011;13160;51.834;4.706;2023-07-16T13:25:15;6.18;;;2.53;;
25213;SDS011;13160;51.834;4.706;2023-07-16T13:27:45;6.25;;;1.73;;
25213;SDS011;13160;51.834;4.706;2023-07-16T13:30:15;7.80;;;2.10;;
25213;SDS011;13160;51.834;4.706;2023-07-16T13:32:43;5.85;;;2.15;;
25213;SDS011;13160;51.834;4.706;2023-07-16T13:35:12;6.18;;;1.90;;
25213;SDS011;13160;51.834;4.706;2023-07-16T13:37:40;6.47;;;2.00;;
25213;SDS011;13160;51.834;4.706;2023-07-16T13:40:09;7.75;;;1.83;;
25213;SDS011;13160;51.834;4.706;2023-07-16T13:42:39;8.32;;;2.22;;
25213;SDS011;13160;51.834;4.706;2023-07-16T13:45:09;7.03;;;1.90;;
25213;SDS011;13160;51.834;4.706;2023-07-16T13:47:37;6.13;;;2.13;;
25213;SDS011;13160;51.834;4.706;2023-07-16T13:50:06;7.00;;;1.70;;
25213;SDS011;13160;51.834;4.706;2023-07-16T13:52:36;6.22;;;1.90;;
25213;SDS011;13160;51.834;4.706;2023-07-16T13:55:05;7.15;;;1.80;;
25213;SDS011;13160;51.834;4.706;2023-07-16T13:57:34;7.28;;;2.13;;
25213;SDS011;13160;51.834;4.706;2023-07-16T14:00:03;6.68;;;2.28;;
25213;SDS011;13160;51.834;4.706;2023-07-16T14:02:37;10.23;;;2.60;;
25213;SDS011;13160;51.834;4.706;2023-07-16T14:05:07;7.47;;;1.90;;
25213;SDS011;13160;51.834;4.706;2023-07-16T14:07:38;8.57;;;2.00;;
25213;SDS011;13160;51.834;4.706;2023-07-16T14:10:07;7.85;;;2.35;;
25213;SDS011;13160;51.834;4.706;2023-07-16T14:12:37;5.28;;;2.00;;
25213;SDS011;13160;51.834;4.706;2023-07-16T14:15:05;6.75;;;2.38;;
25213;SDS011;13160;51.834;4.706;2023-07-16T14:17:35;7.03;;;2.33;;
25213;SDS011;13160;51.834;4.706;2023-07-16T14:20:05;7.30;;;2.20;;
25213;SDS011;13160;51.834;4.706;2023-07-16T14:22:35;8.00;;;2.20;;
25213;SDS011;13160;51.834;4.706;2023-07-16T14:25:04;8.00;;;2.17;;
25213;SDS011;13160;51.834;4.706;2023-07-16T14:27:35;7.20;;;2.38;;
25213;SDS011;13160;51.834;4.706;2023-07-16T14:30:06;6.43;;;2.00;;
25213;SDS011;13160;51.834;4.706;2023-07-16T14:32:37;7.20;;;2.42;;
25213;SDS011;13160;51.834;4.706;2023-07-16T14:35:08;7.50;;;2.72;;
25213;SDS011;13160;51.834;4.706;2023-07-16T14:38:00;9.77;;;2.28;;
25213;SDS011;13160;51.834;4.706;2023-07-16T14:40:28;7.13;;;2.67;;
25213;SDS011;13160;51.834;4.706;2023-07-16T14:42:56;5.85;;;2.30;;
25213;SDS011;13160;51.834;4.706;2023-07-16T14:45:25;7.05;;;2.05;;
25213;SDS011;13160;51.834;4.706;2023-07-16T14:47:54;7.65;;;2.25;;
25213;SDS011;13160;51.834;4.706;2023-07-16T14:50:23;9.50;;;2.28;;
25213;SDS011;13160;51.834;4.706;2023-07-16T14:52:52;7.55;;;2.40;;
25213;SDS011;13160;51.834;4.706;2023-07-16T14:55:23;7.60;;;2.30;;
25213;SDS011;13160;51.834;4.706;2023-07-16T14:57:52;6.97;;;2.40;;
25213;SDS011;13160;51.834;4.706;2023-07-16T15:00:21;9.73;;;2.53;;
25213;SDS011;13160;51.834;4.706;2023-07-16T15:02:49;8.30;;;2.65;;
25213;SDS011;13160;51.834;4.706;2023-07-16T15:05:17;11.88;;;2.40;;